SBMQ

Details ICAO SBMQ (MCP)
Name MACAPA
Region Brazil
Timezone America/Belem (UTC-3.0)
Plans Departing 73
Arriving 68
Stats Elevation 56 ft / 17 m (AMSL)
Location 0.050639° -51.072162°
Runways 1
Magnetic Variation 19.368° W
Sunrise 2018-05-21 09:18:41 UTC / 2018-05-21 06:18:41 Local
Sunset 2018-05-21 21:25:56 UTC / 2018-05-21 18:25:56 Local
Advertisement - Login to hide

Runways

ID Width Length Bearing (true) Bearing (mag) Surface Threshold Offset Overrun Length
08 148 ft / 45 m 6,917 ft / 2,108 m 57.22° 76.59° Asphalt 0 ft / 0 m 219 ft / 67 m
26 148 ft / 45 m 6,917 ft / 2,108 m 237.22° 256.59° Asphalt 0 ft / 0 m 219 ft / 67 m

Map

Weather


0- 5 10 15 20 25 30 35+ Temperature / ° C

Clouds and Precipitation
Forecast for 2018-05-21 12:00 UTC. Updated 2 hours ago

Ground ~20,000 ft ~40,000 ft Winds

METAR

SBMQ 211300Z 35005KT 9999 BKN018 32/24 Q1012

TAF

TAF SBMQ 211000Z 2112/2212 32008KT 9999 SCT006 TX34/2117Z TN25/2206Z BECMG 2113/2115 03010KT SCT025 BECMG 2115/2116 06008KT SCT025 FEW030TCU BECMG 2120/2122 08008KT FEW025 RMK PEN

Frequencies

Tower 118.00 MHz TWR
Approach 119.00 MHz APP
Warning: Do not use this data for real-world aviation or navigation. No guarantee of current accuracy is given.